This is the latest recevied weather packets stored in our database for station/object XQ6AK-15. If no packets are shown the sender has not sent any weather packets the latest 1 day(s).
| Time | Temp. | Humidity | Pressure | Rain* | Wind** | Luminosity | Snow |
|---|---|---|---|---|---|---|---|
| 1836274772 | 9.44° C | 99% | 1008.4 hPa | 3.05 mm | 0 m/s | 0 W/m² | - |
| 1836274471 | 9.44° C | 99% | 1008.6 hPa | 1.78 mm | 0 m/s | 0 W/m² | - |
| 1836274324 | 9.44° C | 99% | 1008.1 hPa | 3.05 mm | 0 m/s | 0 W/m² | - |
| 1836274169 | 9.44° C | 99% | 1008.5 hPa | 3.05 mm | 0 m/s | 0 W/m² | - |
| 1836273869 | 9.44° C | 99% | 1008.4 hPa | 3.05 mm | 0 m/s | 0 W/m² | - |
| 1778040174 | 10.56° C | 99% | 1005.1 hPa | 3.05 mm | 0.45 m/s, 302° | 0 W/m² | - |
| 1778039871 | 10.56° C | 99% | 1005.3 hPa | 3.05 mm | 1.34 m/s, 272° | 0 W/m² | - |
| 1778039568 | 10.56° C | 99% | 1005.3 hPa | 1.78 mm | 0.89 m/s, 284° | 0 W/m² | - |
| 1778039265 | 10.56° C | 99% | 1005.2 hPa | 1.27 mm | 0.89 m/s, 205° | 0 W/m² | - |
| 1778038962 | 10.56° C | 99% | 1005.3 hPa | 3.05 mm | 0.45 m/s, 268° | 0 W/m² | - |
| 1778038658 | 10.56° C | 99% | 1005.4 hPa | 3.05 mm | 0.89 m/s, 216° | 0 W/m² | - |
| 1778038356 | 10.56° C | 99% | 1005.3 hPa | 3.05 mm | 0 m/s | 0 W/m² | - |
| 1778038052 | 10.56° C | 99% | 1005.5 hPa | 1.78 mm | 0.45 m/s, 265° | 0 W/m² | - |
| 1778037749 | 11.11° C | 99% | 1005.4 hPa | 3.56 mm | 1.79 m/s, 266° | 0 W/m² | - |
| 1778037446 | 11.11° C | 99% | 1005.3 hPa | 3.05 mm | 0.45 m/s, 242° | 0 W/m² | - |
| 1778037143 | 11.11° C | 99% | 1005.2 hPa | 1.27 mm | 0.45 m/s, 259° | 0 W/m² | - |
| 1778036841 | 11.11° C | 99% | 1005.2 hPa | 1.78 mm | 0.89 m/s, 271° | 0 W/m² | - |
| 1778036538 | 11.11° C | 99% | 1005.1 hPa | 1.27 mm | 0.45 m/s, 254° | 0 W/m² | - |
| 1778036235 | 11.67° C | 99% | 1005.1 hPa | 1.78 mm | 0 m/s | 0 W/m² | - |
| 1778035931 | 11.67° C | 99% | 1005.1 hPa | 3.05 mm | 0 m/s | 0 W/m² | - |
| 1778035629 | 11.67° C | 99% | 1005.1 hPa | 1.27 mm | 0.45 m/s, 252° | 0 W/m² | - |
| 1778035325 | 11.67° C | 99% | 1005.2 hPa | 1.78 mm | 0 m/s | 0 W/m² | - |
| 1778035021 | 11.67° C | 99% | 1005.2 hPa | 1.27 mm | 0 m/s | 0 W/m² | - |
| 1778034719 | 11.67° C | 99% | 1005.2 hPa | 3.05 mm | 0 m/s | 0 W/m² | - |
| 1778034416 | 11.67° C | 99% | 1005.2 hPa | 3.05 mm | 1.79 m/s, 277° | 0 W/m² | - |
* Rain latest hour (hover to see other rain measurements)
** Current wind speed in m/s (hover to see current wind gust speed)